Portada
METAR-TAF:

METAR-TAF

Aeroports :

Estació Amundsen-Scott

Amundsen-Scott, Antàrtida

latitud: 90-00S, longitud: 000-00E, altitud: 2830 m

Observació

L'informe es va fer fa 33 minuts, a les 20:50 UTC
Vent 5 kt del Est
Temperatura -25°C
Humitat 764%
Pressió 997 hPa
Visibilitat 10 km o més
Escasses núvols a una alçada de 1000 ft
Escasses núvols a una alçada de 3500 ft

METAR: NZSP 062050Z 08005KT 9999 FEW010 FEW035 M25/ A2943 RMK CLN AIR 10004KT ALL WNDS GRID SDG/HDG

Hora: 10:23 (21:23 UTC)

Pronòstic

L'informe es va fer fa 27 minuts, a les 20:56 UTC
Pronòstic vàlid del 06 a les 21 UTC al 07 a les 21 UTC
Vent 5 kt del Est/Nord-Est
Visibilitat 10 km o més
Escasses núvols a una alçada de 1500 ft
Escasses núvols a una alçada de 3500 ft
Núvols disperses a una alçada de 6000 ft

TAF: NZSP 062056Z 0621/0721 06005KT 9999 FEW015 FEW035 SCT060 QNH2938INS ALL WINDS GRID

Observacions i pronòstics meteorològics de més de 4000 aeroports (METAR i TAF).

Les estacions disponibles són els punts grocs i vermells al mapa.

Posi el ratolí al punt desitjat per veure el nom de l'estació.

Feu clic per veure les observacions i els pronòstics meteorològics.

Per canviar el mapa: feu clic els botons verds amb una creu de color negre per apropar; al botó verd amb un guió per allunyar la imatge; o en les fletxes verdes per a mapes adjacents.


METAR-TAF: